Time,TemperatureF,DewpointF,PressureIn,WindDirection,WindDirectionDegrees,WindSpeedMPH,WindSpeedGustMPH,Humidity,HourlyPrecipIn,Conditions,Clouds,dailyrainin,SoftwareType,DateUTC
2013-05-17 20:22:00,68.7,54.7,30.12,SSW,202,2.2,2.2,61,0.00,,,0.00,VWS V14.01,2013-05-18 00:22:00,
2013-05-17 20:27:00,68.4,54.4,30.12,West,270,1.6,4.0,61,0.00,,,0.00,VWS V14.01,2013-05-18 00:27:00,
2013-05-17 20:32:00,68.0,53.6,30.15,NW,315,0.0,3.1,60,0.00,,SCT065,0.00,VWS V14.01,2013-05-18 00:32:00,
2013-05-17 20:37:00,67.6,54.6,30.15,NE,45,0.0,2.2,63,0.00,,SCT065,0.00,VWS V14.01,2013-05-18 00:37:00,
2013-05-17 20:42:00,67.1,54.5,30.15,NE,45,1.1,2.0,64,0.00,,SCT065,0.00,VWS V14.01,2013-05-18 00:42:00,
2013-05-17 20:47:00,66.4,54.3,30.15,NE,45,0.0,1.1,65,0.00,,SCT065,0.00,VWS V14.01,2013-05-18 00:47:00,
2013-05-17 20:52:00,65.8,54.6,30.15,NNE,22,0.0,1.6,67,0.00,,SCT065,0.00,VWS V14.01,2013-05-18 00:52:00,
2013-05-17 20:57:00,65.5,55.0,30.15,NNE,22,1.1,1.6,69,0.00,,SCT065,0.00,VWS V14.01,2013-05-18 00:57:00,
2013-05-17 21:02:00,64.9,54.5,30.15,NNE,22,0.0,0.0,69,0.00,,BKN100,0.00,VWS V14.01,2013-05-18 01:02:00,
2013-05-17 21:07:00,64.4,54.8,30.15,NNE,22,0.0,0.0,71,0.00,,BKN100,0.00,VWS V14.01,2013-05-18 01:07:00,
2013-05-17 21:12:00,64.0,54.5,30.15,NNE,22,0.0,0.0,71,0.00,,BKN100,0.00,VWS V14.01,2013-05-18 01:12:00,
2013-05-17 21:17:00,63.9,54.3,30.15,SE,135,0.0,0.0,71,0.00,,BKN100,0.00,VWS V14.01,2013-05-18 01:17:00,
2013-05-17 21:22:00,63.9,54.7,30.15,ESE,112,0.0,0.0,72,0.00,,BKN100,0.00,VWS V14.01,2013-05-18 01:22:00,
2013-05-17 21:27:00,63.5,54.7,30.15,NNE,22,1.1,1.6,73,0.00,,BKN100,0.00,VWS V14.01,2013-05-18 01:27:00,
2013-05-17 21:32:00,63.1,55.8,30.15,NNE,22,1.1,1.3,77,0.00,,BKN100,0.00,VWS V14.01,2013-05-18 01:32:00,
2013-05-17 21:37:00,63.0,55.3,30.15,NNE,22,0.0,0.0,76,0.00,,BKN100,0.00,VWS V14.01,2013-05-18 01:37:00,
2013-05-17 21:42:00,62.8,54.8,30.15,NE,45,0.0,0.0,75,0.00,,BKN100,0.00,VWS V14.01,2013-05-18 01:42:00,
2013-05-17 21:47:00,62.8,54.4,30.12,SE,135,0.0,0.0,74,0.00,,BKN100,0.00,VWS V14.01,2013-05-18 01:47:00,
2013-05-17 21:52:00,62.8,56.5,30.12,ESE,112,0.0,2.2,80,0.00,,BKN100,0.00,VWS V14.01,2013-05-18 01:52:00,
2013-05-17 21:57:00,62.6,56.3,30.12,East,90,0.0,0.0,80,0.00,,BKN100,0.00,VWS V14.01,2013-05-18 01:57:00,
2013-05-17 22:02:00,62.4,55.8,30.15,East,90,0.0,0.0,79,0.00,,BKN100,0.00,VWS V14.01,2013-05-18 02:02:00,
2013-05-17 22:07:00,62.4,55.8,30.15,SE,135,0.0,0.0,79,0.00,,BKN100,0.00,VWS V14.01,2013-05-18 02:07:00,
2013-05-17 22:12:00,62.2,56.0,30.15,SE,135,0.0,0.0,80,0.00,,BKN100,0.00,VWS V14.01,2013-05-18 02:12:00,
2013-05-17 22:17:00,62.1,55.8,30.15,SE,135,0.0,0.0,80,0.00,,BKN100,0.00,VWS V14.01,2013-05-18 02:17:00,
2013-05-17 22:22:00,61.9,56.0,30.15,East,90,0.0,0.0,81,0.00,,BKN100,0.00,VWS V14.01,2013-05-18 02:22:00,
2013-05-17 22:27:00,61.9,56.0,30.15,ESE,112,0.0,0.0,81,0.00,,BKN100,0.00,VWS V14.01,2013-05-18 02:27:00,
2013-05-17 22:32:00,62.1,57.2,30.15,SE,135,0.0,0.0,84,0.00,,BKN100,0.00,VWS V14.01,2013-05-18 02:32:00,
2013-05-17 22:37:00,62.1,57.2,30.15,East,90,0.0,0.0,84,0.00,,BKN100,0.00,VWS V14.01,2013-05-18 02:37:00,
2013-05-17 22:42:00,61.7,56.5,30.15,East,90,0.0,0.0,83,0.00,,BKN100,0.00,VWS V14.01,2013-05-18 02:42:00,
2013-05-17 22:47:00,61.5,56.3,30.15,East,90,0.0,0.0,83,0.00,,BKN100,0.00,VWS V14.01,2013-05-18 02:47:00,
2013-05-17 22:52:00,61.5,56.0,30.15,SE,135,0.0,0.0,82,0.00,,BKN100,0.00,VWS V14.01,2013-05-18 02:52:00,
2013-05-17 22:57:00,61.5,56.0,30.15,SE,135,0.0,0.0,82,0.00,,BKN100,0.00,VWS V14.01,2013-05-18 02:57:00,
2013-05-17 23:02:00,61.7,57.8,30.15,South,180,0.0,0.0,87,0.00,,BKN090,0.00,VWS V14.01,2013-05-18 03:02:00,
2013-05-17 23:07:00,61.7,58.1,30.15,North,0,0.0,0.0,88,0.00,,BKN090,0.00,VWS V14.01,2013-05-18 03:07:00,
2013-05-17 23:12:00,61.7,58.1,30.15,North,0,0.0,0.0,88,0.00,,BKN090,0.00,VWS V14.01,2013-05-18 03:12:00,
2013-05-17 23:17:00,61.7,58.1,30.15,ENE,68,0.0,0.0,88,0.00,,BKN090,0.00,VWS V14.01,2013-05-18 03:17:00,
2013-05-17 23:22:00,61.7,58.1,30.15,NNW,338,0.0,1.3,88,0.00,,BKN090,0.00,VWS V14.01,2013-05-18 03:22:00,
2013-05-17 23:27:00,61.9,58.3,30.15,WSW,248,0.0,0.0,88,0.00,,BKN090,0.00,VWS V14.01,2013-05-18 03:27:00,
2013-05-17 23:32:00,61.7,58.1,30.15,WSW,248,0.0,0.0,88,0.00,,BKN090,0.00,VWS V14.01,2013-05-18 03:32:00,
2013-05-17 23:37:00,61.7,57.8,30.15,WSW,248,0.0,0.0,87,0.00,,BKN090,0.00,VWS V14.01,2013-05-18 03:37:00,
2013-05-17 23:42:00,61.7,58.1,30.15,SSW,202,0.0,0.0,88,0.00,,BKN090,0.00,VWS V14.01,2013-05-18 03:42:00,
2013-05-17 23:47:00,61.7,58.1,30.15,SSW,202,1.6,1.6,88,0.00,,BKN090,0.00,VWS V14.01,2013-05-18 03:47:00,
2013-05-17 23:52:00,61.7,58.4,30.15,SSW,202,1.3,1.3,89,0.00,,BKN090,0.00,VWS V14.01,2013-05-18 03:52:00,
2013-05-17 23:57:00,61.7,58.7,30.15,NW,315,0.0,0.0,90,0.00,,BKN090,0.00,VWS V14.01,2013-05-18 03:57:00,